createdAt,value
2017-05-11T00:00:23.150Z,981.16
2017-05-11T00:01:23.179Z,981.16
2017-05-11T00:02:23.207Z,981.14
2017-05-11T00:03:23.489Z,981.11
2017-05-11T00:04:23.260Z,981.09
2017-05-11T00:05:23.289Z,981.04
2017-05-11T00:06:23.318Z,981.07
2017-05-11T00:07:23.347Z,981.03
2017-05-11T00:08:23.576Z,981.03
2017-05-11T00:09:23.400Z,981.05
2017-05-11T00:10:23.430Z,981.07
2017-05-11T00:11:23.459Z,981.03
2017-05-11T00:12:23.483Z,981.04
2017-05-11T00:13:23.763Z,981.06
2017-05-11T00:14:23.541Z,981.03
2017-05-11T00:15:23.570Z,981.08
2017-05-11T00:16:23.597Z,981.05
2017-05-11T00:17:23.622Z,981.04
2017-05-11T00:18:23.904Z,981.05
2017-05-11T00:19:23.681Z,981.03
2017-05-11T00:20:23.709Z,981.02
2017-05-11T00:21:23.738Z,981.03
2017-05-11T00:22:23.763Z,981.03
2017-05-11T00:23:24.043Z,981
2017-05-11T00:24:23.822Z,981.02
2017-05-11T00:25:23.849Z,981
2017-05-11T00:26:23.875Z,980.99
2017-05-11T00:27:23.902Z,980.97
2017-05-11T00:28:23.927Z,980.98
2017-05-11T00:29:23.961Z,980.99
2017-05-11T00:30:23.990Z,980.95
2017-05-11T00:31:24.015Z,980.92
2017-05-11T00:32:24.041Z,980.88
2017-05-11T00:33:24.073Z,980.87
2017-05-11T00:34:24.101Z,980.87
2017-05-11T00:35:24.125Z,980.8
2017-05-11T00:36:24.155Z,980.8
2017-05-11T00:37:24.183Z,980.8
2017-05-11T00:38:24.204Z,980.79
2017-05-11T00:39:24.237Z,980.8
2017-05-11T00:40:24.266Z,980.79
2017-05-11T00:41:24.294Z,980.77
2017-05-11T00:42:24.317Z,980.78
2017-05-11T00:43:24.346Z,980.72
2017-05-11T00:44:24.376Z,980.75
2017-05-11T00:45:24.405Z,980.74
2017-05-11T00:46:24.433Z,980.72
2017-05-11T00:47:24.463Z,980.72
2017-05-11T00:48:24.488Z,980.72
2017-05-11T00:49:24.517Z,980.72
2017-05-11T00:50:24.545Z,980.72
2017-05-11T00:51:24.573Z,980.7
2017-05-11T00:52:24.598Z,980.69
2017-05-11T00:53:24.628Z,980.69
2017-05-11T00:54:24.656Z,980.64
2017-05-11T00:55:24.685Z,980.71
2017-05-11T00:56:24.714Z,980.66
2017-05-11T00:57:24.738Z,980.67
2017-05-11T00:58:24.768Z,980.66
2017-05-11T00:59:24.797Z,980.68
2017-05-11T01:00:24.821Z,980.64
2017-05-11T01:01:24.850Z,980.7
2017-05-11T01:02:24.878Z,980.64
2017-05-11T01:03:24.907Z,980.65
2017-05-11T01:04:24.932Z,980.6
2017-05-11T01:05:24.958Z,980.62
2017-05-11T01:06:24.990Z,980.6
2017-05-11T01:07:25.014Z,980.6
2017-05-11T01:08:25.039Z,980.54
2017-05-11T01:09:25.072Z,980.59
2017-05-11T01:10:25.098Z,980.55
2017-05-11T01:11:25.126Z,980.55
2017-05-11T01:12:25.154Z,980.54
2017-05-11T01:13:25.179Z,980.5
2017-05-11T01:14:25.212Z,980.5
2017-05-11T01:15:25.236Z,980.54
2017-05-11T01:16:25.265Z,980.48
2017-05-11T01:17:25.295Z,980.5
2017-05-11T01:18:25.319Z,980.49
2017-05-11T01:19:25.348Z,980.46
2017-05-11T01:20:25.376Z,980.46
2017-05-11T01:21:25.406Z,980.49
2017-05-11T01:22:25.435Z,980.47
2017-05-11T01:23:25.462Z,980.5
2017-05-11T01:24:25.488Z,980.44
2017-05-11T01:25:25.517Z,980.45
2017-05-11T01:26:25.542Z,980.45
2017-05-11T01:27:25.571Z,980.43
2017-05-11T01:28:25.599Z,980.43
2017-05-11T01:29:25.626Z,980.42
2017-05-11T01:30:25.648Z,980.37
2017-05-11T01:31:25.682Z,980.41
2017-05-11T01:32:25.711Z,980.37
2017-05-11T01:33:25.739Z,980.36
2017-05-11T01:34:25.764Z,980.36
2017-05-11T01:35:25.792Z,980.36
2017-05-11T01:36:25.820Z,980.34
2017-05-11T01:37:25.849Z,980.31
2017-05-11T01:38:25.871Z,980.24
2017-05-11T01:39:25.902Z,980.28
2017-05-11T01:40:25.928Z,980.24
2017-05-11T01:41:25.961Z,980.24
2017-05-11T01:42:25.985Z,980.21
2017-05-11T01:43:26.015Z,980.25
2017-05-11T01:44:26.044Z,980.22
2017-05-11T01:45:26.073Z,980.23
2017-05-11T01:46:26.096Z,980.23
2017-05-11T01:47:26.125Z,980.22
2017-05-11T01:48:26.154Z,980.23
2017-05-11T01:49:26.183Z,980.27
2017-05-11T01:50:26.208Z,980.2
2017-05-11T01:51:26.232Z,980.22
2017-05-11T01:52:26.262Z,980.2
2017-05-11T01:53:26.296Z,980.17
2017-05-11T01:54:26.320Z,980.21
2017-05-11T01:55:26.348Z,980.18
2017-05-11T01:56:26.376Z,980.15
2017-05-11T01:57:26.400Z,980.11
2017-05-11T01:58:26.430Z,980.12
2017-05-11T01:59:26.460Z,980.14
2017-05-11T02:00:26.488Z,980.07
2017-05-11T02:01:26.513Z,980.07
2017-05-11T02:02:26.542Z,980.09
2017-05-11T02:03:26.571Z,980.14
2017-05-11T02:04:26.600Z,980.12
2017-05-11T02:05:26.625Z,980.13
2017-05-11T02:06:26.655Z,980.13
2017-05-11T02:07:26.681Z,980.09
2017-05-11T02:08:26.712Z,980.09
2017-05-11T02:09:26.736Z,980.05
2017-05-11T02:10:26.765Z,980.05
2017-05-11T02:11:26.795Z,980.08
2017-05-11T02:12:26.822Z,980.07
2017-05-11T02:13:26.846Z,980.07
2017-05-11T02:14:26.875Z,980.05
2017-05-11T02:15:26.904Z,980.04
2017-05-11T02:16:26.933Z,980.02
2017-05-11T02:17:26.959Z,980
2017-05-11T02:18:26.987Z,980.01
2017-05-11T02:19:27.016Z,979.96
2017-05-11T02:20:27.041Z,979.96
2017-05-11T02:21:27.068Z,979.96
2017-05-11T02:22:27.097Z,979.95
2017-05-11T02:23:27.126Z,979.96
2017-05-11T02:24:27.406Z,979.94
2017-05-11T02:25:27.180Z,979.93
2017-05-11T02:26:27.208Z,979.98
2017-05-11T02:27:27.237Z,979.97
2017-05-11T02:28:27.261Z,979.92
2017-05-11T02:29:27.492Z,979.9
2017-05-11T02:30:27.319Z,979.91
2017-05-11T02:31:27.347Z,979.89
2017-05-11T02:32:27.375Z,979.89
2017-05-11T02:33:27.399Z,979.9
2017-05-11T02:34:27.682Z,979.89
2017-05-11T02:35:27.456Z,979.86
2017-05-11T02:36:27.485Z,979.86
2017-05-11T02:37:27.514Z,979.87
2017-05-11T02:38:27.546Z,979.87
2017-05-11T02:39:27.821Z,979.82
2017-05-11T02:40:27.595Z,979.85
2017-05-11T02:41:27.624Z,979.81
2017-05-11T02:42:27.655Z,979.79
2017-05-11T02:43:27.679Z,979.85
2017-05-11T02:44:27.906Z,979.84
2017-05-11T02:45:27.739Z,979.87
2017-05-11T02:46:27.762Z,979.85
2017-05-11T02:47:27.788Z,979.86
2017-05-11T02:48:27.813Z,979.84
2017-05-11T02:49:28.096Z,979.82
2017-05-11T02:50:27.871Z,979.83
2017-05-11T02:51:27.900Z,979.75
2017-05-11T02:52:27.929Z,979.76
2017-05-11T02:53:27.958Z,979.75
2017-05-11T02:54:27.983Z,979.73
2017-05-11T02:55:28.011Z,979.74
2017-05-11T02:56:28.035Z,979.71
2017-05-11T02:57:28.066Z,979.7
2017-05-11T02:58:28.095Z,979.67
2017-05-11T02:59:28.123Z,979.68
2017-05-11T03:00:28.150Z,979.66
2017-05-11T03:01:28.176Z,979.64
2017-05-11T03:02:28.205Z,979.62
2017-05-11T03:03:28.230Z,979.6
2017-05-11T03:04:28.259Z,979.55
2017-05-11T03:05:28.287Z,979.58
2017-05-11T03:06:28.316Z,979.59
2017-05-11T03:07:28.345Z,979.57
2017-05-11T03:08:28.364Z,979.57
2017-05-11T03:09:28.395Z,979.56
2017-05-11T03:10:28.427Z,979.57
2017-05-11T03:11:28.457Z,979.54
2017-05-11T03:12:28.480Z,979.55
2017-05-11T03:13:28.509Z,979.53
2017-05-11T03:14:28.538Z,979.5
2017-05-11T03:15:28.563Z,979.52
2017-05-11T03:16:28.592Z,979.51
2017-05-11T03:17:28.621Z,979.47
2017-05-11T03:18:28.649Z,979.49
2017-05-11T03:19:28.677Z,979.46
2017-05-11T03:20:28.705Z,979.42
2017-05-11T03:21:28.731Z,979.43
2017-05-11T03:22:28.760Z,979.38
2017-05-11T03:23:28.787Z,979.38
2017-05-11T03:24:28.814Z,979.39
2017-05-11T03:25:28.842Z,979.4
2017-05-11T03:26:28.868Z,979.43
2017-05-11T03:27:28.897Z,979.42
2017-05-11T03:28:28.926Z,979.41
2017-05-11T03:29:28.955Z,979.38
2017-05-11T03:30:28.979Z,979.41
2017-05-11T03:31:29.007Z,979.38
2017-05-11T03:32:29.036Z,979.42
2017-05-11T03:33:29.064Z,979.38
2017-05-11T03:34:29.091Z,979.4
2017-05-11T03:35:29.119Z,979.43
2017-05-11T03:36:29.143Z,979.42
2017-05-11T03:37:29.171Z,979.35
2017-05-11T03:38:29.201Z,979.35
2017-05-11T03:39:29.238Z,979.38
2017-05-11T03:40:29.258Z,979.34
2017-05-11T03:41:29.278Z,979.31
2017-05-11T03:42:29.312Z,979.36
2017-05-11T03:43:29.340Z,979.37
2017-05-11T03:44:29.367Z,979.31
2017-05-11T03:45:29.393Z,979.29
2017-05-11T03:46:29.422Z,979.29
2017-05-11T03:47:29.452Z,979.31
2017-05-11T03:48:29.477Z,979.28
2017-05-11T03:49:29.505Z,979.28
2017-05-11T03:50:29.534Z,979.28
2017-05-11T03:51:29.560Z,979.25
2017-05-11T03:52:29.587Z,979.28
2017-05-11T03:53:29.617Z,979.3
2017-05-11T03:54:29.645Z,979.3
2017-05-11T03:55:29.669Z,979.29
2017-05-11T03:56:29.700Z,979.22
2017-05-11T03:57:29.727Z,979.24
2017-05-11T03:58:29.756Z,979.2
2017-05-11T03:59:29.781Z,979.19
2017-05-11T04:00:29.810Z,979.14
2017-05-11T04:01:29.839Z,979.16
2017-05-11T04:02:29.868Z,979.18
2017-05-11T04:03:29.893Z,979.14
2017-05-11T04:04:29.921Z,979.13
2017-05-11T04:05:29.950Z,979.12
2017-05-11T04:06:29.975Z,979.12
2017-05-11T04:07:30.006Z,979.12
2017-05-11T04:08:30.032Z,979.16
2017-05-11T04:09:30.059Z,979.12
2017-05-11T04:10:30.087Z,979.16
2017-05-11T04:11:30.114Z,979.1
2017-05-11T04:12:30.148Z,979.14
2017-05-11T04:13:30.169Z,979.11
2017-05-11T04:14:30.198Z,979.05
2017-05-11T04:15:30.226Z,979.1
2017-05-11T04:16:30.250Z,979.05
2017-05-11T04:17:30.279Z,979.07
2017-05-11T04:18:30.305Z,979.07
2017-05-11T04:19:30.336Z,979.07
2017-05-11T04:20:30.362Z,979.02
2017-05-11T04:21:30.390Z,979.06
2017-05-11T04:22:30.421Z,979.07
2017-05-11T04:23:30.443Z,979.06
2017-05-11T04:24:30.472Z,979.06
2017-05-11T04:25:30.502Z,979.11
2017-05-11T04:26:30.525Z,979.08
2017-05-11T04:27:30.555Z,979.11
2017-05-11T04:28:30.584Z,979.07
2017-05-11T04:29:30.613Z,979.06
2017-05-11T04:30:30.638Z,979.08
2017-05-11T04:31:30.666Z,979.06
2017-05-11T04:32:30.696Z,979.07
2017-05-11T04:33:30.719Z,979.05
2017-05-11T04:34:30.748Z,979.03
2017-05-11T04:35:30.777Z,979
2017-05-11T04:36:30.802Z,978.96
2017-05-11T04:37:30.830Z,978.96
2017-05-11T04:38:30.859Z,979.02
2017-05-11T04:39:30.880Z,979.02
2017-05-11T04:40:30.913Z,979.02
2017-05-11T04:41:30.943Z,979.05
2017-05-11T04:42:30.971Z,979.05
2017-05-11T04:43:30.997Z,979.01
2017-05-11T04:44:31.025Z,979.08
2017-05-11T04:45:31.057Z,979.08
2017-05-11T04:46:31.083Z,979.07
2017-05-11T04:47:31.108Z,979.06
2017-05-11T04:48:31.136Z,979.06
2017-05-11T04:49:31.165Z,979.07
2017-05-11T04:50:31.190Z,979.06
2017-05-11T04:51:31.218Z,979.06
2017-05-11T04:52:31.248Z,979.1
2017-05-11T04:53:31.277Z,979.12
2017-05-11T04:54:31.301Z,979.11
2017-05-11T04:55:31.582Z,979.13
2017-05-11T04:56:31.359Z,979.1
2017-05-11T04:57:31.382Z,979.1
2017-05-11T04:58:31.412Z,979.11
2017-05-11T04:59:31.480Z,979.13
2017-05-11T05:00:31.716Z,979.13
2017-05-11T05:01:31.489Z,979.11
2017-05-11T05:02:31.523Z,979.12
2017-05-11T05:03:31.552Z,979.14
2017-05-11T05:04:31.577Z,979.1
2017-05-11T05:05:31.905Z,979.12
2017-05-11T05:06:31.634Z,979.11
2017-05-11T05:07:31.659Z,979.04
2017-05-11T05:08:31.688Z,979.04
2017-05-11T05:09:31.717Z,979.04
2017-05-11T05:10:31.992Z,979.05
2017-05-11T05:11:31.771Z,979.08
2017-05-11T05:12:31.798Z,979.02
2017-05-11T05:13:31.828Z,979.03
2017-05-11T05:14:31.852Z,978.99
2017-05-11T05:15:32.080Z,978.99
2017-05-11T05:16:31.913Z,979
2017-05-11T05:17:31.939Z,978.96
2017-05-11T05:18:31.963Z,978.97
2017-05-11T05:19:31.995Z,978.94
2017-05-11T05:20:32.021Z,978.95
2017-05-11T05:21:32.046Z,979.02
2017-05-11T05:22:32.074Z,979
2017-05-11T05:23:32.102Z,978.98
2017-05-11T05:24:32.131Z,978.96
2017-05-11T05:25:32.157Z,978.93
2017-05-11T05:26:32.188Z,978.88
2017-05-11T05:27:32.214Z,978.88
2017-05-11T05:28:32.240Z,978.92
2017-05-11T05:29:32.267Z,978.86
2017-05-11T05:30:32.292Z,978.88
2017-05-11T05:31:32.325Z,978.89
2017-05-11T05:32:32.351Z,978.92
2017-05-11T05:33:32.378Z,978.92
2017-05-11T05:34:32.406Z,978.88
2017-05-11T05:35:32.433Z,978.91
2017-05-11T05:36:32.466Z,978.88
2017-05-11T05:37:32.490Z,978.89
2017-05-11T05:38:32.519Z,978.87
2017-05-11T05:39:32.548Z,978.85
2017-05-11T05:40:32.569Z,978.88
2017-05-11T05:41:32.604Z,978.85
2017-05-11T05:42:32.630Z,978.84
2017-05-11T05:43:32.658Z,978.85
2017-05-11T05:44:32.684Z,978.83
2017-05-11T05:45:32.713Z,978.82
2017-05-11T05:46:32.743Z,978.85
2017-05-11T05:47:32.770Z,978.82
2017-05-11T05:48:32.796Z,978.84
2017-05-11T05:49:32.823Z,978.85
2017-05-11T05:50:32.851Z,978.84
2017-05-11T05:51:32.881Z,978.8
2017-05-11T05:52:32.906Z,978.78
2017-05-11T05:53:32.934Z,978.8
2017-05-11T05:54:32.962Z,978.81
2017-05-11T05:55:32.989Z,978.81
2017-05-11T05:56:33.018Z,978.8
2017-05-11T05:57:33.046Z,978.78
2017-05-11T05:58:33.075Z,978.8
2017-05-11T05:59:33.098Z,978.81
2017-05-11T06:00:33.128Z,978.78
2017-05-11T06:01:33.156Z,978.78
2017-05-11T06:02:33.185Z,978.77
2017-05-11T06:03:33.213Z,978.76
2017-05-11T06:04:33.238Z,978.74
2017-05-11T06:05:33.266Z,978.72
2017-05-11T06:06:33.295Z,978.73
2017-05-11T06:07:33.325Z,978.69
2017-05-11T06:08:33.350Z,978.67
2017-05-11T06:09:33.379Z,978.69
2017-05-11T06:10:33.408Z,978.69
2017-05-11T06:11:33.431Z,978.7
2017-05-11T06:12:33.461Z,978.67
2017-05-11T06:13:33.527Z,978.73
2017-05-11T06:14:33.518Z,978.7
2017-05-11T06:15:33.544Z,978.68
2017-05-11T06:16:33.570Z,978.7
2017-05-11T06:17:33.600Z,978.69
2017-05-11T06:18:33.625Z,978.66
2017-05-11T06:19:33.652Z,978.68
2017-05-11T06:20:33.682Z,978.65
2017-05-11T06:21:33.715Z,978.71
2017-05-11T06:22:33.735Z,978.71
2017-05-11T06:23:33.764Z,978.69
2017-05-11T06:24:33.796Z,978.68
2017-05-11T06:25:33.824Z,978.71
2017-05-11T06:26:33.849Z,978.68
2017-05-11T06:27:34.105Z,978.7
2017-05-11T06:28:34.127Z,978.73
2017-05-11T06:29:33.970Z,978.7
2017-05-11T06:30:34.188Z,978.73
2017-05-11T06:31:33.988Z,978.67
2017-05-11T06:32:34.039Z,978.7
2017-05-11T06:33:34.047Z,978.71
2017-05-11T06:34:34.074Z,978.69
2017-05-11T06:35:34.320Z,978.73
2017-05-11T06:36:34.350Z,978.72
2017-05-11T06:37:34.155Z,978.74
2017-05-11T06:38:34.411Z,978.72
2017-05-11T06:39:34.247Z,978.77
2017-05-11T06:40:34.239Z,978.74
2017-05-11T06:41:34.535Z,978.75
2017-05-11T06:42:34.293Z,978.78
2017-05-11T06:43:34.325Z,978.77
2017-05-11T06:44:34.350Z,978.81
2017-05-11T06:45:34.416Z,978.8
2017-05-11T06:46:34.658Z,978.8
2017-05-11T06:47:34.432Z,978.81
2017-05-11T06:48:34.460Z,978.82
2017-05-11T06:49:34.485Z,978.84
2017-05-11T06:50:34.517Z,978.81
2017-05-11T06:51:34.798Z,978.86
2017-05-11T06:52:34.572Z,978.81
2017-05-11T06:53:34.600Z,978.83
2017-05-11T06:54:34.630Z,978.8
2017-05-11T06:55:34.661Z,978.77
2017-05-11T06:56:34.935Z,978.79
2017-05-11T06:57:34.707Z,978.75
2017-05-11T06:58:34.741Z,978.77
2017-05-11T06:59:34.770Z,978.77
2017-05-11T07:00:34.797Z,978.76
2017-05-11T07:01:35.058Z,978.77
2017-05-11T07:02:34.848Z,978.74
2017-05-11T07:03:34.877Z,978.79
2017-05-11T07:04:34.912Z,978.79
2017-05-11T07:05:34.938Z,978.8
2017-05-11T07:06:35.218Z,978.74
2017-05-11T07:07:34.997Z,978.74
2017-05-11T07:08:35.021Z,978.72
2017-05-11T07:09:35.048Z,978.74
2017-05-11T07:10:35.078Z,978.72
2017-05-11T07:11:35.304Z,978.72
2017-05-11T07:12:35.128Z,978.73
2017-05-11T07:13:35.160Z,978.72
2017-05-11T07:14:35.188Z,978.72
2017-05-11T07:15:35.219Z,978.7
2017-05-11T07:16:35.441Z,978.69
2017-05-11T07:17:35.271Z,978.69
2017-05-11T07:18:35.299Z,978.69
2017-05-11T07:19:35.329Z,978.69
2017-05-11T07:20:35.357Z,978.69
2017-05-11T07:21:35.637Z,978.68
2017-05-11T07:22:35.411Z,978.73
2017-05-11T07:23:35.439Z,978.71
2017-05-11T07:24:35.469Z,978.71
2017-05-11T07:25:35.497Z,978.72
2017-05-11T07:26:35.777Z,978.72
2017-05-11T07:27:35.550Z,978.72
2017-05-11T07:28:35.579Z,978.71
2017-05-11T07:29:35.608Z,978.68
2017-05-11T07:30:35.637Z,978.68
2017-05-11T07:31:35.918Z,978.69
2017-05-11T07:32:35.690Z,978.68
2017-05-11T07:33:35.719Z,978.65
2017-05-11T07:34:35.747Z,978.61
2017-05-11T07:35:35.776Z,978.63
2017-05-11T07:36:36.004Z,978.69
2017-05-11T07:37:35.836Z,978.63
2017-05-11T07:38:35.869Z,978.6
2017-05-11T07:39:35.887Z,978.61
2017-05-11T07:40:35.916Z,978.59
2017-05-11T07:41:36.203Z,978.62
2017-05-11T07:42:35.975Z,978.58
2017-05-11T07:43:36.003Z,978.57
2017-05-11T07:44:36.032Z,978.57
2017-05-11T07:45:36.061Z,978.55
2017-05-11T07:46:36.092Z,978.6
2017-05-11T07:47:36.115Z,978.58
2017-05-11T07:48:36.143Z,978.58
2017-05-11T07:49:36.171Z,978.56
2017-05-11T07:50:36.199Z,978.54
2017-05-11T07:51:36.231Z,978.51
2017-05-11T07:52:36.253Z,978.49
2017-05-11T07:53:36.283Z,978.44
2017-05-11T07:54:36.313Z,978.43
2017-05-11T07:55:36.341Z,978.42
2017-05-11T07:56:36.364Z,978.39
2017-05-11T07:57:36.403Z,978.39
2017-05-11T07:58:36.426Z,978.37
2017-05-11T07:59:36.456Z,978.37
2017-05-11T08:00:36.479Z,978.36
2017-05-11T08:01:36.505Z,978.39
2017-05-11T08:02:36.542Z,978.4
2017-05-11T08:03:36.570Z,978.44
2017-05-11T08:04:36.594Z,978.44
2017-05-11T08:05:36.624Z,978.45
2017-05-11T08:06:36.653Z,978.45
2017-05-11T08:07:36.678Z,978.43
2017-05-11T08:08:36.705Z,978.43
2017-05-11T08:09:36.735Z,978.41
2017-05-11T08:10:36.764Z,978.39
2017-05-11T08:11:36.793Z,978.33
2017-05-11T08:12:36.822Z,978.33
2017-05-11T08:13:36.850Z,978.32
2017-05-11T08:14:36.891Z,978.32
2017-05-11T08:15:36.903Z,978.3
2017-05-11T08:16:36.932Z,978.29
2017-05-11T08:17:36.961Z,978.29
2017-05-11T08:18:36.990Z,978.3
2017-05-11T08:19:37.018Z,978.29
2017-05-11T08:20:37.043Z,978.32
2017-05-11T08:21:37.071Z,978.33
2017-05-11T08:22:37.104Z,978.27
2017-05-11T08:23:37.128Z,978.27
2017-05-11T08:24:37.157Z,978.29
2017-05-11T08:25:37.182Z,978.26
2017-05-11T08:26:37.215Z,978.23
2017-05-11T08:27:37.251Z,978.23
2017-05-11T08:28:37.270Z,978.16
2017-05-11T08:29:37.301Z,978.17
2017-05-11T08:30:37.327Z,978.16
2017-05-11T08:31:37.359Z,978.2
2017-05-11T08:32:37.387Z,978.16
2017-05-11T08:33:37.413Z,978.11
2017-05-11T08:34:37.442Z,978.17
2017-05-11T08:35:37.471Z,978.15
2017-05-11T08:36:37.494Z,978.18
2017-05-11T08:37:37.529Z,978.16
2017-05-11T08:38:37.558Z,978.17
2017-05-11T08:39:37.586Z,978.16
2017-05-11T08:40:37.617Z,978.15
2017-05-11T08:41:37.643Z,978.12
2017-05-11T08:42:37.677Z,978.06
2017-05-11T08:43:37.701Z,978.04
2017-05-11T08:44:37.728Z,978.06
2017-05-11T08:45:37.758Z,978.02
2017-05-11T08:46:37.787Z,977.99
2017-05-11T08:47:37.818Z,978.01
2017-05-11T08:48:37.840Z,978.03
2017-05-11T08:49:37.865Z,978
2017-05-11T08:50:37.897Z,977.99
2017-05-11T08:51:37.926Z,978.01
2017-05-11T08:52:37.955Z,977.97
2017-05-11T08:53:37.984Z,977.99
2017-05-11T08:54:38.036Z,977.94
2017-05-11T08:55:38.037Z,977.97
2017-05-11T08:56:38.071Z,977.97
2017-05-11T08:57:38.099Z,977.98
2017-05-11T08:58:38.128Z,978.02
2017-05-11T08:59:38.157Z,978
2017-05-11T09:00:38.186Z,977.97
2017-05-11T09:01:38.215Z,978.01
2017-05-11T09:02:38.240Z,977.95
2017-05-11T09:03:38.268Z,978
2017-05-11T09:04:38.297Z,977.99
2017-05-11T09:05:38.326Z,978.04
2017-05-11T09:06:38.354Z,978.03
2017-05-11T09:07:38.384Z,978.03
2017-05-11T09:08:38.412Z,978
2017-05-11T09:09:38.436Z,977.99
2017-05-11T09:10:38.464Z,978
2017-05-11T09:11:38.497Z,977.94
2017-05-11T09:12:38.525Z,977.93
2017-05-11T09:13:38.554Z,977.9
2017-05-11T09:14:38.585Z,977.94
2017-05-11T09:15:38.616Z,977.93
2017-05-11T09:16:38.641Z,977.89
2017-05-11T09:17:38.671Z,977.87
2017-05-11T09:18:38.698Z,977.9
2017-05-11T09:19:38.729Z,977.91
2017-05-11T09:20:38.756Z,977.89
2017-05-11T09:21:38.781Z,977.9
2017-05-11T09:22:38.812Z,977.9
2017-05-11T09:23:38.841Z,977.87
2017-05-11T09:24:38.869Z,977.88
2017-05-11T09:25:38.900Z,977.84
2017-05-11T09:26:38.926Z,977.82
2017-05-11T09:27:38.954Z,977.87
2017-05-11T09:28:38.983Z,977.84
2017-05-11T09:29:39.011Z,977.86
2017-05-11T09:30:39.040Z,977.88
2017-05-11T09:31:39.070Z,977.87
2017-05-11T09:32:39.094Z,977.79
2017-05-11T09:33:39.127Z,977.82
2017-05-11T09:34:39.155Z,977.82
2017-05-11T09:35:39.185Z,977.86
2017-05-11T09:36:39.213Z,977.85
2017-05-11T09:37:39.237Z,977.8
2017-05-11T09:38:39.271Z,977.87
2017-05-11T09:39:39.300Z,977.84
2017-05-11T09:40:39.328Z,977.84
2017-05-11T09:41:39.352Z,977.87
2017-05-11T09:42:39.386Z,977.86
2017-05-11T09:43:39.414Z,977.89
2017-05-11T09:44:39.446Z,977.88
2017-05-11T09:45:39.471Z,977.9
2017-05-11T09:46:39.495Z,977.91
2017-05-11T09:47:39.546Z,977.9
2017-05-11T09:48:39.557Z,977.91
2017-05-11T09:49:39.590Z,977.89
2017-05-11T09:50:39.616Z,977.95
2017-05-11T09:51:39.640Z,977.91
2017-05-11T09:52:39.677Z,977.96
2017-05-11T09:53:39.706Z,977.97
2017-05-11T09:54:39.731Z,977.93
2017-05-11T09:55:39.763Z,977.93
2017-05-11T09:56:39.793Z,977.89
2017-05-11T09:57:39.821Z,977.9
2017-05-11T09:58:39.850Z,977.86
2017-05-11T09:59:39.878Z,977.81
2017-05-11T10:00:39.907Z,977.78
2017-05-11T10:01:39.936Z,977.79
2017-05-11T10:02:39.966Z,977.79
2017-05-11T10:03:39.994Z,977.78
2017-05-11T10:04:40.022Z,977.81
2017-05-11T10:05:40.047Z,977.77
2017-05-11T10:06:40.079Z,977.83
2017-05-11T10:07:40.137Z,977.76
2017-05-11T10:08:40.138Z,977.81
2017-05-11T10:09:40.167Z,977.74
2017-05-11T10:10:40.196Z,977.71
2017-05-11T10:11:40.223Z,977.75
2017-05-11T10:12:40.251Z,977.71
2017-05-11T10:13:40.281Z,977.73
2017-05-11T10:14:40.313Z,977.75
2017-05-11T10:15:40.342Z,977.73
2017-05-11T10:16:40.371Z,977.71
2017-05-11T10:17:40.648Z,977.68
2017-05-11T10:18:40.428Z,977.66
2017-05-11T10:19:40.458Z,977.63
2017-05-11T10:20:40.486Z,977.61
2017-05-11T10:21:40.514Z,977.62
2017-05-11T10:22:40.791Z,977.63
2017-05-11T10:23:40.572Z,977.61
2017-05-11T10:24:40.602Z,977.59
2017-05-11T10:25:40.629Z,977.59
2017-05-11T10:26:40.658Z,977.56
2017-05-11T10:27:40.939Z,977.55
2017-05-11T10:28:40.720Z,977.56
2017-05-11T10:29:40.750Z,977.53
2017-05-11T10:30:40.776Z,977.55
2017-05-11T10:31:40.805Z,977.46
2017-05-11T10:32:41.087Z,977.48
2017-05-11T10:33:40.865Z,977.43
2017-05-11T10:34:40.894Z,977.51
2017-05-11T10:35:40.921Z,977.49
2017-05-11T10:36:40.951Z,977.5
2017-05-11T10:37:41.180Z,977.42
2017-05-11T10:38:41.007Z,977.44
2017-05-11T10:39:41.038Z,977.39
2017-05-11T10:40:41.070Z,977.4
2017-05-11T10:41:41.094Z,977.39
2017-05-11T10:42:41.126Z,977.42
2017-05-11T10:43:41.157Z,977.39
2017-05-11T10:44:41.187Z,977.38
2017-05-11T10:45:41.213Z,977.44
2017-05-11T10:46:41.242Z,977.4
2017-05-11T10:47:41.270Z,977.4
2017-05-11T10:48:41.299Z,977.41
2017-05-11T10:49:41.329Z,977.42
2017-05-11T10:50:41.357Z,977.37
2017-05-11T10:51:41.389Z,977.41
2017-05-11T10:52:41.415Z,977.41
2017-05-11T10:53:41.448Z,977.37
2017-05-11T10:54:41.476Z,977.32
2017-05-11T10:55:41.505Z,977.37
2017-05-11T10:56:41.534Z,977.27
2017-05-11T10:57:41.563Z,977.29
2017-05-11T10:58:41.591Z,977.29
2017-05-11T10:59:41.621Z,977.26
2017-05-11T11:00:41.649Z,977.25
2017-05-11T11:01:41.678Z,977.29
2017-05-11T11:02:41.706Z,977.25
2017-05-11T11:03:41.734Z,977.25
2017-05-11T11:04:41.769Z,977.25
2017-05-11T11:05:41.796Z,977.25
2017-05-11T11:06:41.821Z,977.24
2017-05-11T11:07:41.855Z,977.22
2017-05-11T11:08:42.110Z,977.26
2017-05-11T11:09:41.913Z,977.23
2017-05-11T11:10:41.941Z,977.16
2017-05-11T11:11:41.969Z,977.23
2017-05-11T11:12:41.999Z,977.21
2017-05-11T11:13:42.027Z,977.17
2017-05-11T11:14:42.057Z,977.18
2017-05-11T11:15:42.085Z,977.1
2017-05-11T11:16:42.116Z,977.1
2017-05-11T11:17:42.145Z,977.12
2017-05-11T11:18:42.177Z,977.05
2017-05-11T11:19:42.203Z,977.09
2017-05-11T11:20:42.234Z,977.06
2017-05-11T11:21:42.291Z,977.08
2017-05-11T11:22:42.289Z,977.07
2017-05-11T11:23:42.323Z,977
2017-05-11T11:24:42.351Z,977.03
2017-05-11T11:25:42.381Z,976.96
2017-05-11T11:26:42.409Z,976.98
2017-05-11T11:27:42.433Z,976.93
2017-05-11T11:28:42.462Z,976.99
2017-05-11T11:29:42.495Z,976.93
2017-05-11T11:30:42.524Z,976.98
2017-05-11T11:31:42.556Z,976.99
2017-05-11T11:32:42.586Z,976.97
2017-05-11T11:33:42.610Z,976.9
2017-05-11T11:34:42.642Z,976.92
2017-05-11T11:35:42.670Z,976.92
2017-05-11T11:36:42.699Z,976.96
2017-05-11T11:37:42.728Z,976.97
2017-05-11T11:38:42.762Z,976.94
2017-05-11T11:39:42.790Z,976.97
2017-05-11T11:40:43.032Z,976.99
2017-05-11T11:41:42.844Z,976.97
2017-05-11T11:42:43.110Z,976.99
2017-05-11T11:43:42.906Z,977.03
2017-05-11T11:44:42.933Z,977
2017-05-11T11:45:42.968Z,977.08
2017-05-11T11:46:43.230Z,977.08
2017-05-11T11:47:43.030Z,977.02
2017-05-11T11:48:43.058Z,977.01
2017-05-11T11:49:43.090Z,977.03
2017-05-11T11:50:43.120Z,977.05
2017-05-11T11:51:43.152Z,976.96
2017-05-11T11:52:43.177Z,976.96
2017-05-11T11:53:43.214Z,976.85
2017-05-11T11:54:43.242Z,976.93
2017-05-11T11:55:43.275Z,976.93
2017-05-11T11:56:43.300Z,976.96
2017-05-11T11:57:43.337Z,976.87
2017-05-11T11:58:43.365Z,976.82
2017-05-11T11:59:43.398Z,976.78
2017-05-11T12:00:43.427Z,976.83
2017-05-11T12:01:43.456Z,976.84
2017-05-11T12:02:43.488Z,976.89
2017-05-11T12:03:43.517Z,976.9
2017-05-11T12:04:43.551Z,976.89
2017-05-11T12:05:43.579Z,976.85
2017-05-11T12:06:43.612Z,976.89
2017-05-11T12:07:43.641Z,976.89
2017-05-11T12:08:43.673Z,976.87
2017-05-11T12:09:43.703Z,976.91
2017-05-11T12:10:43.735Z,976.79
2017-05-11T12:11:43.759Z,976.84
2017-05-11T12:12:43.792Z,976.88
2017-05-11T12:13:43.844Z,976.93
2017-05-11T12:14:43.853Z,976.81
2017-05-11T12:15:43.887Z,976.83
2017-05-11T12:16:43.915Z,976.86
2017-05-11T12:17:43.947Z,976.86
2017-05-11T12:18:43.976Z,976.84
2017-05-11T12:19:44.005Z,976.82
2017-05-11T12:20:44.038Z,976.99
2017-05-11T12:21:44.296Z,976.99
2017-05-11T12:22:44.099Z,976.85
2017-05-11T12:23:44.128Z,976.75
2017-05-11T12:24:44.163Z,976.77
2017-05-11T12:25:44.190Z,976.8
2017-05-11T12:26:44.223Z,976.75
2017-05-11T12:27:44.252Z,976.76
2017-05-11T12:28:44.286Z,976.67
2017-05-11T12:29:44.312Z,976.63
2017-05-11T12:30:44.345Z,976.66
2017-05-11T12:31:44.370Z,976.66